sensor_id;sensor_type;location;lat;lon;timestamp;P1;durP1;ratioP1;P2;durP2;ratioP2
20324;SDS011;10320;49.482;11.256;2022-11-15T00:00:51;9.00;;;7.97;;
20324;SDS011;10320;49.482;11.256;2022-11-15T00:03:19;9.80;;;7.90;;
20324;SDS011;10320;49.482;11.256;2022-11-15T00:05:46;9.47;;;8.47;;
20324;SDS011;10320;49.482;11.256;2022-11-15T00:08:12;9.43;;;7.87;;
20324;SDS011;10320;49.482;11.256;2022-11-15T00:10:39;10.13;;;8.40;;
20324;SDS011;10320;49.482;11.256;2022-11-15T00:13:08;8.77;;;7.87;;
20324;SDS011;10320;49.482;11.256;2022-11-15T00:15:52;8.97;;;8.10;;
20324;SDS011;10320;49.482;11.256;2022-11-15T00:18:18;9.23;;;8.10;;
20324;SDS011;10320;49.482;11.256;2022-11-15T00:20:44;9.37;;;8.47;;
20324;SDS011;10320;49.482;11.256;2022-11-15T00:23:12;10.17;;;7.70;;
20324;SDS011;10320;49.482;11.256;2022-11-15T00:25:39;10.50;;;8.33;;
20324;SDS011;10320;49.482;11.256;2022-11-15T00:28:06;10.87;;;8.10;;
20324;SDS011;10320;49.482;11.256;2022-11-15T00:30:32;9.00;;;7.90;;
20324;SDS011;10320;49.482;11.256;2022-11-15T00:33:04;8.70;;;7.40;;
20324;SDS011;10320;49.482;11.256;2022-11-15T00:35:31;8.67;;;7.70;;
20324;SDS011;10320;49.482;11.256;2022-11-15T00:37:58;10.13;;;7.50;;
20324;SDS011;10320;49.482;11.256;2022-11-15T00:40:24;9.63;;;8.23;;
20324;SDS011;10320;49.482;11.256;2022-11-15T00:42:50;8.77;;;7.50;;
20324;SDS011;10320;49.482;11.256;2022-11-15T00:45:16;8.63;;;7.73;;
20324;SDS011;10320;49.482;11.256;2022-11-15T00:47:45;8.30;;;7.43;;
20324;SDS011;10320;49.482;11.256;2022-11-15T00:50:12;8.23;;;7.43;;
20324;SDS011;10320;49.482;11.256;2022-11-15T00:52:38;8.87;;;7.57;;
20324;SDS011;10320;49.482;11.256;2022-11-15T00:55:04;10.13;;;7.80;;
20324;SDS011;10320;49.482;11.256;2022-11-15T00:57:30;8.90;;;7.90;;
20324;SDS011;10320;49.482;11.256;2022-11-15T00:59:56;9.37;;;7.50;;
20324;SDS011;10320;49.482;11.256;2022-11-15T01:02:24;9.53;;;7.77;;
20324;SDS011;10320;49.482;11.256;2022-11-15T01:04:50;8.97;;;7.77;;
20324;SDS011;10320;49.482;11.256;2022-11-15T01:07:16;9.23;;;7.70;;
20324;SDS011;10320;49.482;11.256;2022-11-15T01:09:42;9.10;;;7.83;;
20324;SDS011;10320;49.482;11.256;2022-11-15T01:12:08;8.47;;;7.50;;
20324;SDS011;10320;49.482;11.256;2022-11-15T01:14:34;10.07;;;7.97;;
20324;SDS011;10320;49.482;11.256;2022-11-15T01:17:00;8.43;;;7.53;;
20324;SDS011;10320;49.482;11.256;2022-11-15T01:19:26;9.17;;;7.87;;
20324;SDS011;10320;49.482;11.256;2022-11-15T01:21:52;9.83;;;7.63;;
20324;SDS011;10320;49.482;11.256;2022-11-15T01:24:18;8.30;;;7.40;;
20324;SDS011;10320;49.482;11.256;2022-11-15T01:26:44;9.57;;;7.83;;
20324;SDS011;10320;49.482;11.256;2022-11-15T01:29:10;8.97;;;7.83;;
20324;SDS011;10320;49.482;11.256;2022-11-15T01:31:36;10.13;;;8.17;;
20324;SDS011;10320;49.482;11.256;2022-11-15T01:34:02;9.50;;;8.50;;
20324;SDS011;10320;49.482;11.256;2022-11-15T01:36:28;9.17;;;8.27;;
20324;SDS011;10320;49.482;11.256;2022-11-15T01:38:55;10.30;;;8.03;;
20324;SDS011;10320;49.482;11.256;2022-11-15T01:41:23;9.20;;;8.17;;
20324;SDS011;10320;49.482;11.256;2022-11-15T01:43:51;9.10;;;8.20;;
20324;SDS011;10320;49.482;11.256;2022-11-15T01:48:43;9.97;;;8.63;;
20324;SDS011;10320;49.482;11.256;2022-11-15T01:51:10;10.33;;;8.57;;
20324;SDS011;10320;49.482;11.256;2022-11-15T01:53:38;11.23;;;8.50;;
20324;SDS011;10320;49.482;11.256;2022-11-15T01:56:07;10.03;;;9.00;;
20324;SDS011;10320;49.482;11.256;2022-11-15T01:58:34;10.20;;;8.17;;
20324;SDS011;10320;49.482;11.256;2022-11-15T02:01:00;11.73;;;9.30;;
20324;SDS011;10320;49.482;11.256;2022-11-15T02:03:26;10.53;;;9.40;;
20324;SDS011;10320;49.482;11.256;2022-11-15T02:05:57;10.47;;;9.27;;
20324;SDS011;10320;49.482;11.256;2022-11-15T02:08:23;10.07;;;9.00;;
20324;SDS011;10320;49.482;11.256;2022-11-15T02:10:49;10.90;;;8.67;;
20324;SDS011;10320;49.482;11.256;2022-11-15T02:13:15;12.37;;;9.20;;
20324;SDS011;10320;49.482;11.256;2022-11-15T02:16:06;10.50;;;8.90;;
20324;SDS011;10320;49.482;11.256;2022-11-15T02:18:31;11.67;;;10.00;;
20324;SDS011;10320;49.482;11.256;2022-11-15T02:21:12;10.83;;;9.50;;
20324;SDS011;10320;49.482;11.256;2022-11-15T02:29:18;11.67;;;10.30;;
20324;SDS011;10320;49.482;11.256;2022-11-15T02:31:51;10.57;;;8.90;;
20324;SDS011;10320;49.482;11.256;2022-11-15T02:34:30;11.23;;;9.33;;
20324;SDS011;10320;49.482;11.256;2022-11-15T02:42:14;10.90;;;9.40;;
20324;SDS011;10320;49.482;11.256;2022-11-15T02:45:03;12.23;;;10.13;;
20324;SDS011;10320;49.482;11.256;2022-11-15T02:47:31;10.73;;;9.63;;
20324;SDS011;10320;49.482;11.256;2022-11-15T02:50:05;11.17;;;9.23;;
20324;SDS011;10320;49.482;11.256;2022-11-15T02:52:33;9.93;;;8.93;;
20324;SDS011;10320;49.482;11.256;2022-11-15T02:54:59;11.03;;;9.00;;
20324;SDS011;10320;49.482;11.256;2022-11-15T02:57:39;10.80;;;9.70;;
20324;SDS011;10320;49.482;11.256;2022-11-15T03:00:09;11.03;;;9.57;;
20324;SDS011;10320;49.482;11.256;2022-11-15T03:07:43;10.10;;;9.03;;
20324;SDS011;10320;49.482;11.256;2022-11-15T03:12:55;10.23;;;9.00;;
20324;SDS011;10320;49.482;11.256;2022-11-15T03:15:32;11.20;;;9.77;;
20324;SDS011;10320;49.482;11.256;2022-11-15T03:17:59;11.40;;;9.73;;
20324;SDS011;10320;49.482;11.256;2022-11-15T03:20:26;10.87;;;8.57;;
20324;SDS011;10320;49.482;11.256;2022-11-15T03:22:53;11.37;;;9.47;;
20324;SDS011;10320;49.482;11.256;2022-11-15T03:25:22;10.83;;;9.27;;
20324;SDS011;10320;49.482;11.256;2022-11-15T03:27:50;9.73;;;8.73;;
20324;SDS011;10320;49.482;11.256;2022-11-15T03:30:17;11.03;;;9.37;;
20324;SDS011;10320;49.482;11.256;2022-11-15T03:32:44;12.10;;;9.67;;
20324;SDS011;10320;49.482;11.256;2022-11-15T03:35:13;12.13;;;9.43;;
20324;SDS011;10320;49.482;11.256;2022-11-15T03:37:41;12.90;;;10.07;;
20324;SDS011;10320;49.482;11.256;2022-11-15T03:40:09;12.60;;;9.43;;
20324;SDS011;10320;49.482;11.256;2022-11-15T03:42:42;11.60;;;9.77;;
20324;SDS011;10320;49.482;11.256;2022-11-15T03:47:42;11.43;;;9.10;;
20324;SDS011;10320;49.482;11.256;2022-11-15T03:50:16;11.23;;;9.70;;
20324;SDS011;10320;49.482;11.256;2022-11-15T03:52:42;11.67;;;9.93;;
20324;SDS011;10320;49.482;11.256;2022-11-15T03:55:11;12.20;;;9.83;;
20324;SDS011;10320;49.482;11.256;2022-11-15T03:57:38;11.77;;;9.60;;
20324;SDS011;10320;49.482;11.256;2022-11-15T04:00:04;12.83;;;10.07;;
20324;SDS011;10320;49.482;11.256;2022-11-15T04:02:30;15.27;;;10.67;;
20324;SDS011;10320;49.482;11.256;2022-11-15T04:04:56;11.83;;;10.63;;
20324;SDS011;10320;49.482;11.256;2022-11-15T04:07:22;13.77;;;11.30;;
20324;SDS011;10320;49.482;11.256;2022-11-15T04:09:48;14.93;;;10.50;;
20324;SDS011;10320;49.482;11.256;2022-11-15T04:12:31;12.30;;;9.87;;
20324;SDS011;10320;49.482;11.256;2022-11-15T04:17:42;12.37;;;10.33;;
20324;SDS011;10320;49.482;11.256;2022-11-15T04:22:57;14.00;;;10.60;;
20324;SDS011;10320;49.482;11.256;2022-11-15T04:25:42;14.07;;;11.00;;
20324;SDS011;10320;49.482;11.256;2022-11-15T04:28:09;15.07;;;11.33;;
20324;SDS011;10320;49.482;11.256;2022-11-15T04:30:35;13.27;;;10.53;;
20324;SDS011;10320;49.482;11.256;2022-11-15T04:33:01;13.77;;;11.07;;
20324;SDS011;10320;49.482;11.256;2022-11-15T04:35:27;12.37;;;10.70;;
20324;SDS011;10320;49.482;11.256;2022-11-15T04:37:53;13.97;;;10.93;;
20324;SDS011;10320;49.482;11.256;2022-11-15T04:40:19;13.73;;;11.07;;
20324;SDS011;10320;49.482;11.256;2022-11-15T04:42:45;13.80;;;10.20;;
20324;SDS011;10320;49.482;11.256;2022-11-15T04:45:11;14.90;;;11.13;;
20324;SDS011;10320;49.482;11.256;2022-11-15T04:47:37;13.27;;;10.80;;
20324;SDS011;10320;49.482;11.256;2022-11-15T04:50:03;13.47;;;10.70;;
20324;SDS011;10320;49.482;11.256;2022-11-15T04:52:29;11.57;;;9.90;;
20324;SDS011;10320;49.482;11.256;2022-11-15T04:54:55;13.10;;;10.50;;
20324;SDS011;10320;49.482;11.256;2022-11-15T04:57:21;13.60;;;11.43;;
20324;SDS011;10320;49.482;11.256;2022-11-15T04:59:47;16.57;;;12.00;;
20324;SDS011;10320;49.482;11.256;2022-11-15T05:02:13;14.47;;;11.90;;
20324;SDS011;10320;49.482;11.256;2022-11-15T05:04:39;15.80;;;11.83;;
20324;SDS011;10320;49.482;11.256;2022-11-15T05:07:05;14.70;;;11.30;;
20324;SDS011;10320;49.482;11.256;2022-11-15T05:09:31;14.90;;;12.23;;
20324;SDS011;10320;49.482;11.256;2022-11-15T05:11:57;18.20;;;12.70;;
20324;SDS011;10320;49.482;11.256;2022-11-15T05:14:23;17.10;;;12.83;;
20324;SDS011;10320;49.482;11.256;2022-11-15T05:16:49;16.23;;;12.40;;
20324;SDS011;10320;49.482;11.256;2022-11-15T05:19:15;18.03;;;13.30;;
20324;SDS011;10320;49.482;11.256;2022-11-15T05:21:41;16.13;;;12.20;;
20324;SDS011;10320;49.482;11.256;2022-11-15T05:24:09;23.13;;;18.40;;
20324;SDS011;10320;49.482;11.256;2022-11-15T05:26:36;21.40;;;19.10;;
20324;SDS011;10320;49.482;11.256;2022-11-15T05:29:02;22.20;;;15.77;;
20324;SDS011;10320;49.482;11.256;2022-11-15T05:31:28;18.63;;;14.57;;
20324;SDS011;10320;49.482;11.256;2022-11-15T05:33:54;19.83;;;14.87;;
20324;SDS011;10320;49.482;11.256;2022-11-15T05:36:26;19.23;;;13.90;;
20324;SDS011;10320;49.482;11.256;2022-11-15T05:38:53;15.73;;;12.47;;
20324;SDS011;10320;49.482;11.256;2022-11-15T05:41:20;18.13;;;13.73;;
20324;SDS011;10320;49.482;11.256;2022-11-15T05:43:48;18.33;;;13.53;;
20324;SDS011;10320;49.482;11.256;2022-11-15T05:46:14;17.07;;;13.40;;
20324;SDS011;10320;49.482;11.256;2022-11-15T05:48:41;19.83;;;14.17;;
20324;SDS011;10320;49.482;11.256;2022-11-15T05:51:07;18.80;;;14.03;;
20324;SDS011;10320;49.482;11.256;2022-11-15T05:53:33;17.63;;;13.17;;
20324;SDS011;10320;49.482;11.256;2022-11-15T05:56:00;18.90;;;14.17;;
20324;SDS011;10320;49.482;11.256;2022-11-15T05:58:26;18.37;;;13.73;;
20324;SDS011;10320;49.482;11.256;2022-11-15T06:00:52;18.57;;;13.87;;
20324;SDS011;10320;49.482;11.256;2022-11-15T06:03:19;18.63;;;13.70;;
20324;SDS011;10320;49.482;11.256;2022-11-15T06:05:45;16.73;;;13.37;;
20324;SDS011;10320;49.482;11.256;2022-11-15T06:08:11;18.97;;;13.67;;
20324;SDS011;10320;49.482;11.256;2022-11-15T06:10:37;19.00;;;14.23;;
20324;SDS011;10320;49.482;11.256;2022-11-15T06:13:04;21.70;;;14.10;;
20324;SDS011;10320;49.482;11.256;2022-11-15T06:15:31;17.83;;;13.37;;
20324;SDS011;10320;49.482;11.256;2022-11-15T06:17:58;19.47;;;14.00;;
20324;SDS011;10320;49.482;11.256;2022-11-15T06:20:25;19.07;;;14.63;;
20324;SDS011;10320;49.482;11.256;2022-11-15T06:22:51;19.17;;;14.50;;
20324;SDS011;10320;49.482;11.256;2022-11-15T06:25:21;19.20;;;15.03;;
20324;SDS011;10320;49.482;11.256;2022-11-15T06:27:51;18.83;;;14.97;;
20324;SDS011;10320;49.482;11.256;2022-11-15T06:30:17;20.23;;;14.83;;
20324;SDS011;10320;49.482;11.256;2022-11-15T06:32:43;19.90;;;14.47;;
20324;SDS011;10320;49.482;11.256;2022-11-15T06:35:09;18.77;;;15.07;;
20324;SDS011;10320;49.482;11.256;2022-11-15T06:37:35;20.73;;;15.40;;
20324;SDS011;10320;49.482;11.256;2022-11-15T06:40:01;17.87;;;14.07;;
20324;SDS011;10320;49.482;11.256;2022-11-15T06:42:27;18.93;;;14.17;;
20324;SDS011;10320;49.482;11.256;2022-11-15T06:44:53;27.33;;;21.03;;
20324;SDS011;10320;49.482;11.256;2022-11-15T06:47:19;21.37;;;15.93;;
20324;SDS011;10320;49.482;11.256;2022-11-15T06:49:45;19.13;;;16.73;;
20324;SDS011;10320;49.482;11.256;2022-11-15T06:52:11;19.07;;;15.37;;
20324;SDS011;10320;49.482;11.256;2022-11-15T06:54:37;19.93;;;13.87;;
20324;SDS011;10320;49.482;11.256;2022-11-15T06:57:04;17.97;;;13.17;;
20324;SDS011;10320;49.482;11.256;2022-11-15T06:59:30;18.43;;;13.30;;
20324;SDS011;10320;49.482;11.256;2022-11-15T07:01:56;16.83;;;12.97;;
20324;SDS011;10320;49.482;11.256;2022-11-15T07:04:22;17.43;;;13.87;;
20324;SDS011;10320;49.482;11.256;2022-11-15T07:06:48;18.57;;;13.23;;
20324;SDS011;10320;49.482;11.256;2022-11-15T07:09:14;15.87;;;12.83;;
20324;SDS011;10320;49.482;11.256;2022-11-15T07:11:40;18.20;;;13.63;;
20324;SDS011;10320;49.482;11.256;2022-11-15T07:14:06;18.57;;;12.73;;
20324;SDS011;10320;49.482;11.256;2022-11-15T07:16:32;17.90;;;12.77;;
20324;SDS011;10320;49.482;11.256;2022-11-15T07:18:58;16.07;;;12.53;;
20324;SDS011;10320;49.482;11.256;2022-11-15T07:21:24;17.87;;;12.70;;
20324;SDS011;10320;49.482;11.256;2022-11-15T07:23:50;17.57;;;13.37;;
20324;SDS011;10320;49.482;11.256;2022-11-15T07:26:16;18.10;;;13.80;;
20324;SDS011;10320;49.482;11.256;2022-11-15T07:28:42;16.00;;;12.33;;
20324;SDS011;10320;49.482;11.256;2022-11-15T07:31:08;14.57;;;11.80;;
20324;SDS011;10320;49.482;11.256;2022-11-15T07:33:34;15.37;;;11.87;;
20324;SDS011;10320;49.482;11.256;2022-11-15T07:36:04;15.73;;;12.53;;
20324;SDS011;10320;49.482;11.256;2022-11-15T07:38:31;16.33;;;12.30;;
20324;SDS011;10320;49.482;11.256;2022-11-15T07:40:57;16.40;;;13.50;;
20324;SDS011;10320;49.482;11.256;2022-11-15T07:43:24;17.13;;;12.70;;
20324;SDS011;10320;49.482;11.256;2022-11-15T07:45:50;16.90;;;12.43;;
20324;SDS011;10320;49.482;11.256;2022-11-15T07:48:16;16.03;;;12.63;;
20324;SDS011;10320;49.482;11.256;2022-11-15T07:50:42;16.13;;;12.73;;
20324;SDS011;10320;49.482;11.256;2022-11-15T07:53:08;15.33;;;12.33;;
20324;SDS011;10320;49.482;11.256;2022-11-15T07:55:35;16.30;;;13.23;;
20324;SDS011;10320;49.482;11.256;2022-11-15T07:58:05;13.83;;;11.40;;
20324;SDS011;10320;49.482;11.256;2022-11-15T08:00:31;17.13;;;13.20;;
20324;SDS011;10320;49.482;11.256;2022-11-15T08:03:04;15.40;;;13.00;;
20324;SDS011;10320;49.482;11.256;2022-11-15T08:05:30;15.20;;;12.67;;
20324;SDS011;10320;49.482;11.256;2022-11-15T08:07:56;16.83;;;13.30;;
20324;SDS011;10320;49.482;11.256;2022-11-15T08:10:22;15.60;;;13.00;;
20324;SDS011;10320;49.482;11.256;2022-11-15T08:12:56;18.07;;;13.00;;
20324;SDS011;10320;49.482;11.256;2022-11-15T08:15:22;16.93;;;12.93;;
20324;SDS011;10320;49.482;11.256;2022-11-15T08:17:52;17.10;;;13.00;;
20324;SDS011;10320;49.482;11.256;2022-11-15T08:20:18;18.30;;;13.50;;
20324;SDS011;10320;49.482;11.256;2022-11-15T08:22:45;16.63;;;13.10;;
20324;SDS011;10320;49.482;11.256;2022-11-15T08:25:11;15.57;;;13.13;;
20324;SDS011;10320;49.482;11.256;2022-11-15T08:27:37;15.80;;;12.77;;
20324;SDS011;10320;49.482;11.256;2022-11-15T08:30:03;14.40;;;12.80;;
20324;SDS011;10320;49.482;11.256;2022-11-15T08:32:30;15.53;;;13.27;;
20324;SDS011;10320;49.482;11.256;2022-11-15T08:34:56;14.67;;;12.17;;
20324;SDS011;10320;49.482;11.256;2022-11-15T08:37:22;13.40;;;11.67;;
20324;SDS011;10320;49.482;11.256;2022-11-15T08:39:48;13.33;;;11.73;;
20324;SDS011;10320;49.482;11.256;2022-11-15T08:42:16;13.90;;;12.03;;
20324;SDS011;10320;49.482;11.256;2022-11-15T08:44:43;13.67;;;12.23;;
20324;SDS011;10320;49.482;11.256;2022-11-15T08:47:10;15.50;;;12.07;;
20324;SDS011;10320;49.482;11.256;2022-11-15T08:49:38;12.63;;;11.27;;
20324;SDS011;10320;49.482;11.256;2022-11-15T08:52:05;13.33;;;11.93;;
20324;SDS011;10320;49.482;11.256;2022-11-15T08:54:31;11.80;;;10.60;;
20324;SDS011;10320;49.482;11.256;2022-11-15T08:56:58;11.47;;;10.27;;
20324;SDS011;10320;49.482;11.256;2022-11-15T08:59:24;10.77;;;9.47;;
20324;SDS011;10320;49.482;11.256;2022-11-15T09:01:50;9.80;;;8.80;;
20324;SDS011;10320;49.482;11.256;2022-11-15T09:04:17;10.27;;;9.20;;
20324;SDS011;10320;49.482;11.256;2022-11-15T09:06:43;9.90;;;8.90;;
20324;SDS011;10320;49.482;11.256;2022-11-15T09:09:09;9.13;;;8.20;;
20324;SDS011;10320;49.482;11.256;2022-11-15T09:11:35;8.93;;;8.13;;
20324;SDS011;10320;49.482;11.256;2022-11-15T09:14:02;8.57;;;7.63;;
20324;SDS011;10320;49.482;11.256;2022-11-15T09:16:32;9.07;;;7.50;;
20324;SDS011;10320;49.482;11.256;2022-11-15T09:19:00;8.17;;;7.37;;
20324;SDS011;10320;49.482;11.256;2022-11-15T09:21:26;7.90;;;7.10;;
20324;SDS011;10320;49.482;11.256;2022-11-15T09:23:52;8.70;;;7.67;;
20324;SDS011;10320;49.482;11.256;2022-11-15T09:26:18;9.17;;;8.27;;
20324;SDS011;10320;49.482;11.256;2022-11-15T09:28:44;7.90;;;7.20;;
20324;SDS011;10320;49.482;11.256;2022-11-15T09:31:10;9.40;;;7.83;;
20324;SDS011;10320;49.482;11.256;2022-11-15T09:33:36;7.00;;;6.30;;
20324;SDS011;10320;49.482;11.256;2022-11-15T09:36:03;7.57;;;6.83;;
20324;SDS011;10320;49.482;11.256;2022-11-15T09:38:30;7.20;;;6.50;;
20324;SDS011;10320;49.482;11.256;2022-11-15T09:49:08;6.03;;;5.53;;
20324;SDS011;10320;49.482;11.256;2022-11-15T09:51:45;5.80;;;5.30;;
20324;SDS011;10320;49.482;11.256;2022-11-15T09:57:11;5.83;;;5.33;;
20324;SDS011;10320;49.482;11.256;2022-11-15T10:02:29;5.40;;;4.90;;
20324;SDS011;10320;49.482;11.256;2022-11-15T10:04:57;5.30;;;4.73;;
20324;SDS011;10320;49.482;11.256;2022-11-15T10:07:26;4.83;;;4.43;;
20324;SDS011;10320;49.482;11.256;2022-11-15T10:12:23;3.93;;;3.43;;
20324;SDS011;10320;49.482;11.256;2022-11-15T10:15:02;4.33;;;3.77;;
20324;SDS011;10320;49.482;11.256;2022-11-15T10:22:38;3.90;;;3.60;;
20324;SDS011;10320;49.482;11.256;2022-11-15T10:27:34;4.13;;;3.73;;
20324;SDS011;10320;49.482;11.256;2022-11-15T10:30:00;4.00;;;3.67;;
20324;SDS011;10320;49.482;11.256;2022-11-15T10:32:26;3.90;;;3.47;;
20324;SDS011;10320;49.482;11.256;2022-11-15T10:34:54;3.90;;;3.60;;
20324;SDS011;10320;49.482;11.256;2022-11-15T10:37:30;3.80;;;3.50;;
20324;SDS011;10320;49.482;11.256;2022-11-15T10:40:06;4.13;;;3.63;;
20324;SDS011;10320;49.482;11.256;2022-11-15T10:42:32;3.50;;;3.20;;
20324;SDS011;10320;49.482;11.256;2022-11-15T10:45:00;3.80;;;3.20;;
20324;SDS011;10320;49.482;11.256;2022-11-15T10:47:27;4.70;;;3.53;;
20324;SDS011;10320;49.482;11.256;2022-11-15T10:49:56;3.47;;;3.17;;
20324;SDS011;10320;49.482;11.256;2022-11-15T10:52:23;3.23;;;2.93;;
20324;SDS011;10320;49.482;11.256;2022-11-15T10:54:52;3.33;;;3.03;;
20324;SDS011;10320;49.482;11.256;2022-11-15T10:57:24;3.63;;;2.80;;
20324;SDS011;10320;49.482;11.256;2022-11-15T10:59:56;3.40;;;3.10;;
20324;SDS011;10320;49.482;11.256;2022-11-15T11:02:30;3.23;;;2.90;;
20324;SDS011;10320;49.482;11.256;2022-11-15T11:04:56;3.50;;;3.10;;
20324;SDS011;10320;49.482;11.256;2022-11-15T11:07:24;4.07;;;2.77;;
20324;SDS011;10320;49.482;11.256;2022-11-15T11:10:24;3.00;;;2.53;;
20324;SDS011;10320;49.482;11.256;2022-11-15T11:12:43;2.90;;;2.60;;
20324;SDS011;10320;49.482;11.256;2022-11-15T11:15:11;3.37;;;2.47;;
20324;SDS011;10320;49.482;11.256;2022-11-15T11:17:49;3.23;;;2.63;;
20324;SDS011;10320;49.482;11.256;2022-11-15T11:20:25;2.90;;;2.60;;
20324;SDS011;10320;49.482;11.256;2022-11-15T11:23:03;2.40;;;2.20;;
20324;SDS011;10320;49.482;11.256;2022-11-15T11:25:34;3.30;;;2.50;;
20324;SDS011;10320;49.482;11.256;2022-11-15T11:31:20;2.40;;;2.20;;
20324;SDS011;10320;49.482;11.256;2022-11-15T11:39:06;3.27;;;2.27;;
20324;SDS011;10320;49.482;11.256;2022-11-15T11:41:50;2.60;;;2.10;;
20324;SDS011;10320;49.482;11.256;2022-11-15T11:49:28;2.33;;;2.10;;
20324;SDS011;10320;49.482;11.256;2022-11-15T11:52:00;2.90;;;2.37;;
20324;SDS011;10320;49.482;11.256;2022-11-15T11:57:17;2.40;;;2.20;;
20324;SDS011;10320;49.482;11.256;2022-11-15T11:59:49;2.67;;;2.17;;
20324;SDS011;10320;49.482;11.256;2022-11-15T12:04:44;2.73;;;2.20;;
20324;SDS011;10320;49.482;11.256;2022-11-15T12:09:41;3.67;;;2.57;;
20324;SDS011;10320;49.482;11.256;2022-11-15T12:12:19;4.07;;;2.40;;
20324;SDS011;10320;49.482;11.256;2022-11-15T12:14:55;2.50;;;2.30;;
20324;SDS011;10320;49.482;11.256;2022-11-15T12:17:24;2.67;;;2.30;;
20324;SDS011;10320;49.482;11.256;2022-11-15T12:19:52;2.57;;;2.37;;
20324;SDS011;10320;49.482;11.256;2022-11-15T12:22:36;2.50;;;2.27;;
20324;SDS011;10320;49.482;11.256;2022-11-15T12:25:24;3.30;;;2.30;;
20324;SDS011;10320;49.482;11.256;2022-11-15T12:30:45;2.27;;;2.07;;
20324;SDS011;10320;49.482;11.256;2022-11-15T12:41:16;3.10;;;2.13;;
20324;SDS011;10320;49.482;11.256;2022-11-15T12:43:45;2.63;;;2.20;;
20324;SDS011;10320;49.482;11.256;2022-11-15T12:49:51;2.80;;;2.10;;
20324;SDS011;10320;49.482;11.256;2022-11-15T13:02:18;3.03;;;2.33;;
20324;SDS011;10320;49.482;11.256;2022-11-15T13:04:48;2.93;;;2.17;;
20324;SDS011;10320;49.482;11.256;2022-11-15T13:17:42;2.57;;;2.10;;
20324;SDS011;10320;49.482;11.256;2022-11-15T13:22:58;3.43;;;2.40;;
20324;SDS011;10320;49.482;11.256;2022-11-15T13:30:53;2.47;;;2.20;;
20324;SDS011;10320;49.482;11.256;2022-11-15T13:33:23;2.87;;;2.00;;
20324;SDS011;10320;49.482;11.256;2022-11-15T13:35:51;2.50;;;2.30;;
20324;SDS011;10320;49.482;11.256;2022-11-15T13:38:29;2.37;;;2.17;;
20324;SDS011;10320;49.482;11.256;2022-11-15T13:40:57;2.30;;;2.10;;
20324;SDS011;10320;49.482;11.256;2022-11-15T13:43:35;4.40;;;2.43;;
20324;SDS011;10320;49.482;11.256;2022-11-15T13:46:13;2.33;;;2.07;;
20324;SDS011;10320;49.482;11.256;2022-11-15T13:48:41;3.37;;;2.20;;
20324;SDS011;10320;49.482;11.256;2022-11-15T13:54:07;2.47;;;2.17;;
20324;SDS011;10320;49.482;11.256;2022-11-15T13:56:35;3.77;;;2.30;;
20324;SDS011;10320;49.482;11.256;2022-11-15T13:59:08;2.93;;;2.20;;
20324;SDS011;10320;49.482;11.256;2022-11-15T14:01:34;3.70;;;2.07;;
20324;SDS011;10320;49.482;11.256;2022-11-15T14:04:00;2.17;;;1.97;;
20324;SDS011;10320;49.482;11.256;2022-11-15T14:06:28;2.70;;;2.23;;
20324;SDS011;10320;49.482;11.256;2022-11-15T14:09:14;3.13;;;2.37;;
20324;SDS011;10320;49.482;11.256;2022-11-15T14:11:49;3.17;;;2.60;;
20324;SDS011;10320;49.482;11.256;2022-11-15T14:14:15;2.67;;;2.20;;
20324;SDS011;10320;49.482;11.256;2022-11-15T14:16:43;3.50;;;2.30;;
20324;SDS011;10320;49.482;11.256;2022-11-15T14:19:22;2.80;;;2.50;;
20324;SDS011;10320;49.482;11.256;2022-11-15T14:24:37;2.77;;;2.50;;
20324;SDS011;10320;49.482;11.256;2022-11-15T14:27:20;2.87;;;2.20;;
20324;SDS011;10320;49.482;11.256;2022-11-15T14:29:47;3.13;;;2.40;;
20324;SDS011;10320;49.482;11.256;2022-11-15T14:32:20;2.90;;;2.60;;
20324;SDS011;10320;49.482;11.256;2022-11-15T14:34:47;3.80;;;2.50;;
20324;SDS011;10320;49.482;11.256;2022-11-15T14:39:42;2.90;;;2.70;;
20324;SDS011;10320;49.482;11.256;2022-11-15T14:42:09;3.27;;;2.93;;
20324;SDS011;10320;49.482;11.256;2022-11-15T14:44:35;3.60;;;2.83;;
20324;SDS011;10320;49.482;11.256;2022-11-15T14:47:02;3.83;;;2.90;;
20324;SDS011;10320;49.482;11.256;2022-11-15T14:49:48;3.50;;;2.50;;
20324;SDS011;10320;49.482;11.256;2022-11-15T14:52:27;3.33;;;2.83;;
20324;SDS011;10320;49.482;11.256;2022-11-15T14:54:54;4.83;;;3.10;;
20324;SDS011;10320;49.482;11.256;2022-11-15T14:57:20;3.27;;;2.97;;
20324;SDS011;10320;49.482;11.256;2022-11-15T14:59:47;3.23;;;2.93;;
20324;SDS011;10320;49.482;11.256;2022-11-15T15:02:18;3.10;;;2.80;;
20324;SDS011;10320;49.482;11.256;2022-11-15T15:04:44;3.43;;;2.90;;
20324;SDS011;10320;49.482;11.256;2022-11-15T15:07:10;3.80;;;2.93;;
20324;SDS011;10320;49.482;11.256;2022-11-15T15:09:36;3.40;;;3.10;;
20324;SDS011;10320;49.482;11.256;2022-11-15T15:12:03;4.20;;;3.23;;
20324;SDS011;10320;49.482;11.256;2022-11-15T15:14:29;4.53;;;3.00;;
20324;SDS011;10320;49.482;11.256;2022-11-15T15:16:55;3.73;;;3.10;;
20324;SDS011;10320;49.482;11.256;2022-11-15T15:19:21;3.90;;;3.23;;
20324;SDS011;10320;49.482;11.256;2022-11-15T15:21:47;4.63;;;3.20;;
20324;SDS011;10320;49.482;11.256;2022-11-15T15:24:14;3.53;;;3.20;;
20324;SDS011;10320;49.482;11.256;2022-11-15T15:26:40;4.77;;;3.40;;
20324;SDS011;10320;49.482;11.256;2022-11-15T15:29:06;3.60;;;3.30;;
20324;SDS011;10320;49.482;11.256;2022-11-15T15:31:33;3.57;;;3.10;;
20324;SDS011;10320;49.482;11.256;2022-11-15T15:34:01;4.60;;;3.53;;
20324;SDS011;10320;49.482;11.256;2022-11-15T15:36:27;5.53;;;4.27;;
20324;SDS011;10320;49.482;11.256;2022-11-15T15:38:53;4.87;;;4.30;;
20324;SDS011;10320;49.482;11.256;2022-11-15T15:41:19;4.33;;;3.70;;
20324;SDS011;10320;49.482;11.256;2022-11-15T15:43:46;4.10;;;3.70;;
20324;SDS011;10320;49.482;11.256;2022-11-15T15:46:16;5.20;;;4.30;;
20324;SDS011;10320;49.482;11.256;2022-11-15T15:49:02;5.03;;;3.80;;
20324;SDS011;10320;49.482;11.256;2022-11-15T15:51:29;4.83;;;4.43;;
20324;SDS011;10320;49.482;11.256;2022-11-15T15:53:55;4.83;;;4.00;;
20324;SDS011;10320;49.482;11.256;2022-11-15T15:56:23;5.47;;;4.60;;
20324;SDS011;10320;49.482;11.256;2022-11-15T15:58:49;6.73;;;5.00;;
20324;SDS011;10320;49.482;11.256;2022-11-15T16:01:16;6.63;;;5.93;;
20324;SDS011;10320;49.482;11.256;2022-11-15T16:03:46;7.07;;;5.10;;
20324;SDS011;10320;49.482;11.256;2022-11-15T16:06:33;6.93;;;4.53;;
20324;SDS011;10320;49.482;11.256;2022-11-15T16:09:00;6.43;;;5.83;;
20324;SDS011;10320;49.482;11.256;2022-11-15T16:11:26;5.93;;;5.27;;
20324;SDS011;10320;49.482;11.256;2022-11-15T16:13:52;5.00;;;4.47;;
20324;SDS011;10320;49.482;11.256;2022-11-15T16:16:18;6.57;;;5.17;;
20324;SDS011;10320;49.482;11.256;2022-11-15T16:18:45;5.30;;;4.73;;
20324;SDS011;10320;49.482;11.256;2022-11-15T16:21:11;5.13;;;4.40;;
20324;SDS011;10320;49.482;11.256;2022-11-15T16:23:37;6.00;;;4.80;;
20324;SDS011;10320;49.482;11.256;2022-11-15T16:26:09;4.90;;;4.40;;
20324;SDS011;10320;49.482;11.256;2022-11-15T16:28:40;6.57;;;4.30;;
20324;SDS011;10320;49.482;11.256;2022-11-15T16:31:10;5.67;;;4.70;;
20324;SDS011;10320;49.482;11.256;2022-11-15T16:33:36;6.67;;;5.10;;
20324;SDS011;10320;49.482;11.256;2022-11-15T16:36:02;5.77;;;4.53;;